Terminal Aerodrome Forecast
Issued by NWS

Current Version | Previous Version | Text Only | Print | Product List | Glossary On
Versions: 1 2 3 4 5 6 7 8 9 10 11 12 13 14 15 16
000
FTUS46 KMFR 231140
TAFLMT
TAF
KLMT 231140Z 2312/2412 28006KT P6SM BKN070
     FM231700 34008KT P6SM BKN050
     FM232200 33014G20KT P6SM SCT050 BKN080
     FM240400 33006KT P6SM SCT080=

USA.gov is the U.S. government's official web portal to all federal, state and local government web resources and services.